Time;durP1;ratioP1;P1;durP2;ratioP2;P2;SDS_P1;SDS_P2;PMS_P1;PMS_P2;Temp;Humidity;BMP_temperature;BMP_pressure;BME280_temperature;BME280_humidity;BME280_pressure;Samples;Min_cycle;Max_cycle;Signal;HPM_P1;HPM_P2
2022/07/24 00:02:24;;;;;;;12.20;7.15;;;;;;;21.02;74.61;97359.38;5036155;28;20040;-78
2022/07/24 00:04:50;;;;;;;11.02;6.97;;;;;;;21.07;75.59;97362.44;5050251;28;20043;-78
2022/07/24 00:07:16;;;;;;;11.32;6.78;;;;;;;20.91;75.93;97337.94;5059802;28;20025;-78
2022/07/24 00:09:42;;;;;;;12.10;6.45;;;;;;;20.96;76.01;97354.59;5053284;28;20024;-77
2022/07/24 00:12:08;;;;;;;15.05;7.25;;;;;;;20.97;76.26;97345.44;5053472;28;20415;-78
2022/07/24 00:14:33;;;;;;;13.45;7.10;;;;;;;21.03;76.35;97347.50;5062959;28;20081;-77
2022/07/24 00:16:59;;;;;;;14.57;6.70;;;;;;;21.03;76.48;97354.78;5053143;28;20111;-77
2022/07/24 00:19:25;;;;;;;18.45;7.28;;;;;;;21.12;76.53;97353.84;5044913;28;20521;-77
2022/07/24 00:21:50;;;;;;;14.18;7.35;;;;;;;21.01;77.02;97357.66;5053354;28;20121;-77
2022/07/24 00:24:16;;;;;;;16.00;6.80;;;;;;;21.02;76.64;97348.50;5070424;28;20410;-77
2022/07/24 00:26:41;;;;;;;11.32;7.25;;;;;;;20.91;77.10;97346.09;5062513;28;20028;-77
2022/07/24 00:29:07;;;;;;;14.38;7.72;;;;;;;20.92;77.70;97346.91;5067308;28;20052;-77
2022/07/24 00:31:33;;;;;;;17.40;7.05;;;;;;;20.86;77.87;97348.44;5074673;28;20028;-78
2022/07/24 00:33:58;;;;;;;11.93;6.47;;;;;;;20.77;77.75;97334.97;5056531;28;20043;-78
2022/07/24 00:36:24;;;;;;;11.98;7.15;;;;;;;20.78;77.29;97344.81;5072723;28;20427;-79
2022/07/24 00:38:50;;;;;;;22.42;7.53;;;;;;;20.64;78.58;97338.13;5059703;28;20075;-78
2022/07/24 00:41:15;;;;;;;15.38;7.50;;;;;;;20.64;78.67;97340.00;5076495;28;20032;-77
2022/07/24 00:44:00;;;;;;;14.93;7.15;;;;;;;20.70;78.19;97348.38;5059560;28;20025;-78
2022/07/24 00:46:26;;;;;;;16.77;7.03;;;;;;;20.66;79.08;97349.72;5059656;28;20028;-78
2022/07/24 00:48:52;;;;;;;17.20;7.70;;;;;;;20.52;80.09;97342.13;5059786;28;20028;-79
2022/07/24 00:51:18;;;;;;;18.65;7.53;;;;;;;20.46;80.31;97329.19;5059440;28;20510;-78
2022/07/24 00:53:43;;;;;;;13.57;7.43;;;;;;;20.51;80.46;97343.19;5054632;28;20036;-78
2022/07/24 00:56:09;;;;;;;16.65;7.43;;;;;;;20.44;80.32;97337.53;5058093;28;20012;-78
2022/07/24 00:58:34;;;;;;;13.00;7.38;;;;;;;20.43;80.65;97330.38;5059425;28;20086;-78
2022/07/24 01:01:00;;;;;;;11.73;7.60;;;;;;;20.44;80.56;97332.09;5058104;28;20040;-78
2022/07/24 01:03:26;;;;;;;24.65;8.02;;;;;;;20.26;81.58;97322.31;5059846;28;20048;-77
2022/07/24 01:05:51;;;;;;;15.15;7.70;;;;;;;20.32;81.55;97335.25;5059429;28;20047;-77
2022/07/24 01:08:17;;;;;;;21.00;8.00;;;;;;;20.26;81.99;97330.44;5059541;28;20528;-78
2022/07/24 01:10:43;;;;;;;11.23;7.03;;;;;;;20.27;82.10;97327.56;5052665;28;20024;-78
2022/07/24 01:13:09;;;;;;;12.15;7.13;;;;;;;20.17;82.79;97334.09;5076139;28;20067;-79
2022/07/24 01:15:34;;;;;;;10.07;7.30;;;;;;;20.20;83.07;97331.06;5059278;28;20020;-78
2022/07/24 01:18:02;;;;;;;19.08;6.93;;;;;;;20.25;82.98;97320.56;5055266;28;20381;-79
2022/07/24 01:20:27;;;;;;;15.32;7.22;;;;;;;20.16;83.26;97324.22;5055232;28;20032;-77
2022/07/24 01:22:53;;;;;;;17.00;7.43;;;;;;;20.17;82.95;97324.09;5046887;28;20043;-79
2022/07/24 01:25:18;;;;;;;13.07;7.05;;;;;;;20.11;83.29;97332.03;5051004;28;20414;-75
2022/07/24 01:27:44;;;;;;;14.25;7.75;;;;;;;20.06;83.55;97315.38;5059969;28;20039;-77
2022/07/24 01:30:10;;;;;;;13.35;7.38;;;;;;;20.18;83.06;97333.91;5059770;28;20115;-78
2022/07/24 01:32:35;;;;;;;20.70;7.28;;;;;;;20.14;83.28;97329.00;5059669;28;20399;-78
2022/07/24 01:35:01;;;;;;;21.42;8.10;;;;;;;19.98;84.31;97327.00;5072156;28;20071;-78
2022/07/24 01:37:27;;;;;;;14.70;7.65;;;;;;;19.85;85.53;97330.13;5051577;28;20493;-77
2022/07/24 01:39:52;;;;;;;20.05;7.35;;;;;;;19.81;86.17;97322.47;5044290;28;20036;-78
2022/07/24 01:42:20;;;;;;;11.88;6.97;;;;;;;19.74;86.37;97314.09;5067835;28;20523;-78
2022/07/24 01:44:46;;;;;;;20.65;7.60;;;;;;;19.73;86.62;97319.69;5060654;28;20048;-79
2022/07/24 01:47:11;;;;;;;15.15;7.95;;;;;;;19.70;87.40;97307.28;5056028;28;20479;-77
2022/07/24 01:49:37;;;;;;;15.93;7.95;;;;;;;19.71;87.75;97310.84;5072964;28;20103;-77
2022/07/24 01:52:03;;;;;;;18.42;7.28;;;;;;;19.79;87.03;97313.63;5056161;28;20020;-77
2022/07/24 01:54:29;;;;;;;18.90;8.23;;;;;;;19.77;87.05;97315.66;5055866;28;20032;-78
2022/07/24 01:56:54;;;;;;;12.98;7.95;;;;;;;19.75;87.82;97304.09;5061116;28;20078;-77
2022/07/24 01:59:20;;;;;;;10.38;7.30;;;;;;;19.82;87.42;97311.44;5062167;28;20024;-77
2022/07/24 02:01:45;;;;;;;14.65;7.63;;;;;;;19.81;87.85;97303.47;5055979;28;20492;-78
2022/07/24 02:04:11;;;;;;;11.85;7.72;;;;;;;19.78;88.09;97312.75;5052392;28;20108;-77
2022/07/24 02:06:37;;;;;;;16.13;7.80;;;;;;;19.72;88.60;97318.81;5064186;28;20020;-77
2022/07/24 02:09:02;;;;;;;17.45;7.97;;;;;;;19.72;88.91;97313.38;5067170;28;20499;-78
2022/07/24 02:11:28;;;;;;;19.13;8.40;;;;;;;19.65;89.69;97315.06;5055734;28;20444;-79
2022/07/24 02:13:55;;;;;;;18.70;7.95;;;;;;;19.61;90.40;97310.94;5055724;28;20070;-78
2022/07/24 02:16:21;;;;;;;19.67;8.23;;;;;;;19.66;90.62;97319.44;5055539;28;20028;-78
2022/07/24 02:18:46;;;;;;;15.82;8.05;;;;;;;19.66;90.32;97318.59;5052619;28;20035;-77
2022/07/24 02:21:12;;;;;;;16.77;8.68;;;;;;;19.58;90.68;97330.25;5047070;28;20119;-77
2022/07/24 02:23:38;;;;;;;22.50;8.43;;;;;;;19.57;90.78;97331.25;5055216;28;20024;-78
2022/07/24 02:26:03;;;;;;;15.65;8.48;;;;;;;19.53;90.60;97323.59;5052583;28;20115;-78
2022/07/24 02:28:29;;;;;;;18.05;8.18;;;;;;;19.45;90.16;97319.78;5046895;28;20032;-77
2022/07/24 02:30:55;;;;;;;14.07;7.95;;;;;;;19.25;90.86;97304.66;5060879;28;20017;-77
2022/07/24 02:33:20;;;;;;;19.13;8.15;;;;;;;19.23;91.00;97314.78;5055051;28;20105;-77
2022/07/24 02:35:46;;;;;;;13.90;8.10;;;;;;;19.26;91.19;97317.19;5043936;28;20036;-78
2022/07/24 02:38:12;;;;;;;23.33;8.05;;;;;;;19.28;90.84;97308.91;5071756;28;20020;-78
2022/07/24 02:40:37;;;;;;;22.27;8.18;;;;;;;19.24;91.53;97308.34;5043678;28;20093;-78
2022/07/24 02:43:03;;;;;;;14.45;7.40;;;;;;;19.35;92.09;97320.81;5052064;28;20192;-78
2022/07/24 02:45:28;;;;;;;17.13;7.70;;;;;;;19.34;91.98;97314.56;5066073;28;20025;-78
2022/07/24 02:47:56;;;;;;;20.23;8.43;;;;;;;19.30;92.63;97318.59;5053232;28;20033;-78
2022/07/24 02:50:23;;;;;;;24.23;8.43;;;;;;;19.34;92.35;97305.56;5053545;28;20029;-77
2022/07/24 02:52:49;;;;;;;19.60;8.85;;;;;;;19.25;92.62;97309.22;5046550;28;20062;-77
2022/07/24 02:55:14;;;;;;;19.75;8.65;;;;;;;19.26;92.77;97297.34;5054888;28;20130;-77
2022/07/24 02:57:40;;;;;;;18.13;8.55;;;;;;;19.19;92.11;97307.97;5054721;28;20028;-78
2022/07/24 03:00:09;;;;;;;12.48;7.72;;;;;;;19.10;93.28;97302.63;5044288;28;20040;-77
2022/07/24 03:02:35;;;;;;;14.73;8.07;;;;;;;19.02;94.75;97302.53;5054779;28;20048;-77
2022/07/24 03:05:01;;;;;;;17.67;7.78;;;;;;;18.98;94.73;97298.44;5045980;28;20031;-78
2022/07/24 03:07:28;;;;;;;18.92;7.65;;;;;;;18.97;96.28;97304.84;5054844;28;20548;-78
2022/07/24 03:09:54;;;;;;;18.45;8.23;;;;;;;18.94;96.58;97317.72;5052300;28;20405;-78
2022/07/24 03:12:19;;;;;;;18.88;8.52;;;;;;;18.93;96.87;97310.56;5070991;28;20028;-77
2022/07/24 03:14:45;;;;;;;19.05;8.60;;;;;;;18.95;96.80;97308.56;5048607;28;20032;-77
2022/07/24 03:17:11;;;;;;;14.73;7.95;;;;;;;19.01;96.78;97314.38;5054045;28;20032;-76
2022/07/24 03:19:36;;;;;;;14.10;8.32;;;;;;;19.07;96.45;97317.34;5059929;28;20074;-77
2022/07/24 03:22:02;;;;;;;18.58;8.73;;;;;;;19.06;96.79;97309.34;5045407;28;20063;-76
2022/07/24 03:24:28;;;;;;;19.92;9.10;;;;;;;19.04;96.85;97303.25;5053982;28;20055;-77
2022/07/24 03:26:53;;;;;;;22.92;9.25;;;;;;;18.98;98.07;97301.13;5053713;28;20111;-77
2022/07/24 03:29:19;;;;;;;24.08;8.82;;;;;;;18.98;98.97;97296.53;5050804;28;20033;-78
2022/07/24 03:31:44;;;;;;;23.65;10.85;;;;;;;19.00;98.95;97301.81;5069313;28;20020;-81
2022/07/24 03:34:10;;;;;;;22.30;13.10;;;;;;;19.06;99.28;97306.63;5053290;28;20120;-78
2022/07/24 03:36:36;;;;;;;28.85;11.70;;;;;;;19.17;97.89;97304.56;5053746;28;20035;-77
2022/07/24 03:39:02;;;;;;;24.35;12.73;;;;;;;19.20;97.94;97309.66;5064561;28;20020;-78
2022/07/24 03:41:28;;;;;;;35.25;15.43;;;;;;;19.33;96.78;97318.28;5057308;28;20465;-78
2022/07/24 03:43:54;;;;;;;19.33;10.05;;;;;;;19.34;93.64;97298.28;5034477;28;20094;-78
2022/07/24 03:46:20;;;;;;;22.90;10.57;;;;;;;19.35;94.14;97304.53;5054056;28;20085;-78
2022/07/24 03:48:45;;;;;;;27.00;13.30;;;;;;;19.40;93.84;97310.41;5069288;28;20050;-76
2022/07/24 03:51:11;;;;;;;18.50;11.13;;;;;;;19.44;93.49;97295.53;5068906;28;20032;-77
2022/07/24 03:53:36;;;;;;;27.65;13.57;;;;;;;19.54;92.76;97304.41;5036960;28;20471;-77
2022/07/24 03:56:09;;;;;;;23.45;12.32;;;;;;;19.59;92.71;97312.97;5044662;28;20025;-77
2022/07/24 03:58:36;;;;;;;23.13;11.98;;;;;;;19.72;91.91;97307.97;5058682;28;20025;-78
2022/07/24 04:01:02;;;;;;;23.88;10.35;;;;;;;19.76;91.90;97314.78;5053232;28;20059;-76
2022/07/24 04:03:27;;;;;;;20.48;10.10;;;;;;;19.75;91.61;97317.69;5047558;28;20028;-76
2022/07/24 04:05:53;;;;;;;19.85;10.43;;;;;;;19.84;91.13;97319.44;5069876;28;20024;-77
2022/07/24 04:08:19;;;;;;;23.98;9.48;;;;;;;19.89;91.29;97315.25;5060966;28;20024;-78
2022/07/24 04:10:44;;;;;;;25.92;10.07;;;;;;;19.95;90.80;97314.59;5070362;28;20540;-78
2022/07/24 04:13:10;;;;;;;18.95;9.10;;;;;;;19.95;89.57;97314.59;5052835;28;20028;-78
2022/07/24 04:15:35;;;;;;;18.67;8.38;;;;;;;19.84;89.42;97312.13;5074175;28;20040;-77
2022/07/24 04:18:01;;;;;;;22.25;9.07;;;;;;;19.81;90.91;97317.88;5048750;28;20181;-78
2022/07/24 04:20:27;;;;;;;15.80;9.35;;;;;;;19.94;89.26;97317.47;5053036;28;20113;-77
2022/07/24 04:22:52;;;;;;;19.85;8.98;;;;;;;20.06;88.57;97315.38;5053135;28;20024;-77
2022/07/24 04:25:18;;;;;;;17.95;8.98;;;;;;;20.18;87.64;97314.09;5053246;28;20561;-77
2022/07/24 04:27:44;;;;;;;15.93;9.32;;;;;;;20.38;87.31;97315.59;5069693;28;20035;-77
2022/07/24 04:30:10;;;;;;;19.63;8.43;;;;;;;20.51;86.97;97314.13;5049228;28;20082;-77
2022/07/24 04:32:37;;;;;;;19.90;9.15;;;;;;;20.55;87.62;97317.34;5052559;28;20029;-77
2022/07/24 04:35:04;;;;;;;22.88;9.15;;;;;;;20.72;86.78;97332.75;5049596;28;20115;-77
2022/07/24 04:37:29;;;;;;;19.08;9.50;;;;;;;20.87;86.24;97328.38;5061390;28;20471;-76
2022/07/24 04:39:55;;;;;;;20.02;9.00;;;;;;;20.95;85.28;97328.41;5052955;28;20115;-77
2022/07/24 04:42:20;;;;;;;17.73;9.40;;;;;;;21.23;83.71;97331.75;5052743;28;20086;-77
2022/07/24 04:44:46;;;;;;;16.60;9.82;;;;;;;21.38;81.62;97330.06;5066603;28;20029;-77
2022/07/24 04:47:11;;;;;;;24.15;10.52;;;;;;;21.25;82.64;97335.19;5036555;28;20506;-77
2022/07/24 04:49:37;;;;;;;29.05;10.50;;;;;;;21.28;82.67;97336.72;5068826;28;20029;-78
2022/07/24 04:52:03;;;;;;;20.23;9.70;;;;;;;21.37;82.33;97335.69;5055904;28;20040;-77
2022/07/24 04:54:28;;;;;;;18.05;10.60;;;;;;;21.54;81.53;97343.72;5039466;28;20033;-77
2022/07/24 04:56:54;;;;;;;25.10;9.45;;;;;;;21.68;80.80;97334.06;5044059;28;20033;-77
2022/07/24 04:59:20;;;;;;;25.33;10.32;;;;;;;21.77;79.34;97337.63;5052706;28;20090;-77
2022/07/24 05:01:45;;;;;;;21.83;9.15;;;;;;;21.87;78.50;97339.13;5044438;28;20076;-77
2022/07/24 05:04:11;;;;;;;17.42;9.30;;;;;;;22.00;77.55;97328.63;5052646;28;20036;-77
2022/07/24 05:06:36;;;;;;;19.25;9.73;;;;;;;22.40;76.24;97345.94;5053016;28;20028;-83
2022/07/24 05:09:02;;;;;;;17.90;9.70;;;;;;;22.91;74.38;97344.63;5050971;28;20494;-82
2022/07/24 05:11:28;;;;;;;23.27;9.95;;;;;;;23.45;72.00;97351.03;5041270;28;20066;-83
2022/07/24 05:13:53;;;;;;;19.83;9.93;;;;;;;23.58;70.96;97351.28;5055092;28;20024;-84
2022/07/24 05:16:19;;;;;;;27.48;10.57;;;;;;;23.45;71.70;97353.75;5041582;28;20404;-83
2022/07/24 05:18:44;;;;;;;18.35;9.52;;;;;;;23.59;70.76;97358.47;5070890;28;20052;-83
2022/07/24 05:21:10;;;;;;;16.85;10.30;;;;;;;23.76;69.45;97357.31;5058845;28;20032;-81
2022/07/24 05:23:36;;;;;;;21.02;9.98;;;;;;;24.05;67.90;97341.03;5057466;28;20058;-84
2022/07/24 05:26:01;;;;;;;20.73;10.45;;;;;;;24.53;66.60;97345.22;5057958;28;20488;-84
2022/07/24 05:28:27;;;;;;;15.75;10.15;;;;;;;25.04;64.65;97346.16;5054049;28;20086;-83
2022/07/24 05:30:52;;;;;;;22.05;10.60;;;;;;;26.26;61.00;97343.38;5066014;28;20404;-82
2022/07/24 05:33:18;;;;;;;23.65;11.25;;;;;;;27.88;55.50;97334.56;5056461;28;20135;-82
2022/07/24 05:35:43;;;;;;;28.15;12.07;;;;;;;29.16;52.03;97329.47;5057542;28;20137;-83
2022/07/24 05:38:09;;;;;;;16.30;11.20;;;;;;;30.20;49.21;97318.97;5075137;28;20032;-84
2022/07/24 05:40:34;;;;;;;22.27;11.40;;;;;;;30.98;46.83;97322.09;5071145;28;20048;-83
2022/07/24 05:43:00;;;;;;;20.25;11.20;;;;;;;31.19;45.77;97321.69;5057499;28;20033;-82
2022/07/24 05:45:26;;;;;;;27.48;14.75;;;;;;;31.64;44.65;97319.44;5068254;28;20412;-82
2022/07/24 05:47:51;;;;;;;26.77;13.02;;;;;;;32.66;42.77;97310.84;5074795;28;20567;-84
2022/07/24 05:50:17;;;;;;;27.48;14.93;;;;;;;33.30;41.55;97306.25;5052446;28;20534;-82
2022/07/24 05:52:42;;;;;;;25.83;12.38;;;;;;;34.17;39.63;97313.34;5050352;28;20082;-82
2022/07/24 05:55:08;;;;;;;25.27;14.02;;;;;;;34.67;38.09;97296.69;5067703;28;20086;-82
2022/07/24 05:57:34;;;;;;;22.75;12.70;;;;;;;34.91;37.39;97308.47;5073810;28;20035;-82
2022/07/24 06:00:00;;;;;;;25.05;12.13;;;;;;;35.36;36.56;97295.25;5055983;28;20094;-85
2022/07/24 06:02:25;;;;;;;22.30;12.32;;;;;;;35.98;36.11;97308.81;5061694;28;20020;-84
2022/07/24 06:04:51;;;;;;;19.55;11.40;;;;;;;36.50;34.72;97302.66;5064349;28;20028;-85
2022/07/24 06:07:16;;;;;;;25.10;11.00;;;;;;;37.13;34.05;97291.44;5070713;28;20399;-83
2022/07/24 06:09:42;;;;;;;19.65;9.65;;;;;;;37.25;32.93;97299.63;5073433;28;20028;-85
2022/07/24 06:12:08;;;;;;;21.60;12.38;;;;;;;37.65;32.11;97285.91;5056249;28;20052;-85
2022/07/24 06:14:33;;;;;;;18.90;10.00;;;;;;;36.82;32.80;97296.00;5065033;28;20077;-85
2022/07/24 06:16:59;;;;;;;31.08;12.55;;;;;;;36.92;32.59;97284.03;5072079;28;20412;-82
2022/07/24 06:19:25;;;;;;;21.55;11.77;;;;;;;37.17;32.20;97292.59;5067801;28;20029;-82
2022/07/24 06:21:50;;;;;;;29.50;13.35;;;;;;;38.44;30.85;97286.41;5054908;28;20032;-82
2022/07/24 06:24:16;;;;;;;29.15;11.38;;;;;;;39.29;29.95;97281.00;5063196;28;20112;-79
2022/07/24 06:26:42;;;;;;;35.13;11.30;;;;;;;38.66;30.89;97269.34;5071688;28;20028;-80
2022/07/24 06:29:07;;;;;;;21.90;10.20;;;;;;;37.44;31.71;97275.69;5064253;28;20029;-79
2022/07/24 06:31:33;;;;;;;21.90;10.38;;;;;;;38.66;30.41;97265.69;5049843;28;20075;-82
2022/07/24 06:34:40;;;;;;;19.80;9.32;;;;;;;39.60;29.79;97268.56;5068113;28;20036;-85
2022/07/24 06:37:06;;;;;;;37.88;10.23;;;;;;;39.13;29.53;97268.16;5065595;28;20056;-83
2022/07/24 06:40:02;;;;;;;25.80;10.73;;;;;;;40.20;27.96;97261.84;5065035;28;20032;-84
2022/07/24 06:42:28;;;;;;;26.92;11.95;;;;;;;40.11;28.54;97252.38;5050317;28;20084;-84
2022/07/24 06:44:53;;;;;;;32.80;13.55;;;;;;;39.48;28.91;97240.06;5047312;28;20568;-84
2022/07/24 06:47:19;;;;;;;24.88;13.00;;;;;;;38.97;29.93;97254.22;5055008;28;20119;-84
2022/07/24 06:49:45;;;;;;;27.73;14.90;;;;;;;38.48;30.08;97239.13;5064740;28;20504;-84
2022/07/24 06:52:14;;;;;;;27.55;14.25;;;;;;;38.96;28.71;97258.13;5062987;28;20420;-84
2022/07/24 06:54:41;;;;;;;17.92;10.90;;;;;;;38.86;28.80;97251.69;5071878;28;20424;-84
2022/07/24 06:57:07;;;;;;;19.80;10.00;;;;;;;39.39;27.70;97258.56;5071949;28;20093;-83
2022/07/24 06:59:33;;;;;;;22.63;10.32;;;;;;;38.47;27.87;97251.44;5053524;28;20032;-84
2022/07/24 07:01:58;;;;;;;15.43;7.85;;;;;;;37.91;27.53;97250.50;5075615;28;20110;-84
2022/07/24 07:04:24;;;;;;;15.07;7.20;;;;;;;36.69;28.95;97256.56;5054662;28;20024;-83
2022/07/24 07:06:49;;;;;;;17.85;8.15;;;;;;;36.13;30.05;97256.06;5051328;28;20025;-83
2022/07/24 07:09:15;;;;;;;13.60;7.22;;;;;;;36.46;30.14;97259.69;5070867;28;20479;-84
2022/07/24 07:11:41;;;;;;;15.95;7.45;;;;;;;36.23;30.37;97244.19;5046186;28;20024;-83
2022/07/24 07:14:06;;;;;;;17.77;7.15;;;;;;;35.15;30.94;97253.50;5054503;28;20032;-83
2022/07/24 07:16:32;;;;;;;15.52;8.20;;;;;;;35.15;31.34;97256.28;5050759;28;20025;-84
2022/07/24 07:18:57;;;;;;;17.60;7.72;;;;;;;35.24;31.83;97251.94;5054248;28;20032;-84
2022/07/24 07:21:23;;;;;;;11.35;7.95;;;;;;;35.31;31.93;97258.16;5070975;28;20414;-84
2022/07/24 07:23:48;;;;;;;21.23;7.95;;;;;;;35.48;32.26;97264.47;5054116;28;20439;-84
2022/07/24 07:26:14;;;;;;;19.10;8.95;;;;;;;35.79;32.68;97269.34;5053811;28;20098;-84
2022/07/24 07:28:40;;;;;;;19.08;9.20;;;;;;;35.97;33.17;97270.06;5071174;28;20020;-84
2022/07/24 07:31:05;;;;;;;23.55;8.52;;;;;;;35.85;31.59;97271.06;5067095;28;20172;-84
2022/07/24 07:33:31;;;;;;;15.20;8.13;;;;;;;36.25;31.47;97264.25;5054351;28;20028;-84
2022/07/24 07:35:56;;;;;;;17.40;8.38;;;;;;;37.95;29.74;97254.44;5054644;28;20051;-85
2022/07/24 07:38:38;;;;;;;14.43;7.32;;;;;;;40.19;27.27;97248.09;5053772;28;20028;-85
2022/07/24 07:41:03;;;;;;;;;;;;;;;41.74;25.56;97255.28;5034024;28;20040;-84
2022/07/24 07:43:29;;;;;;;16.60;7.18;;;;;;;42.48;24.47;97246.91;5033046;28;19999;-84
2022/07/24 07:45:55;;;;;;;17.52;8.40;;;;;;;42.60;23.71;97243.63;5033122;28;20095;-84
2022/07/24 07:48:20;;;;;;;14.27;7.63;;;;;;;43.57;22.78;97244.34;5016744;28;20052;-83
2022/07/24 07:50:46;;;;;;;16.65;8.05;;;;;;;42.93;23.68;97250.91;5016616;28;20116;-84
2022/07/24 07:53:11;;;;;;;12.40;7.97;;;;;;;42.33;24.44;97235.06;5016526;28;20033;-83
2022/07/24 07:55:37;;;;;;;17.08;7.90;;;;;;;43.39;23.75;97247.25;5033144;28;20029;-84
2022/07/24 07:58:03;;;;;;;11.85;7.85;;;;;;;41.55;25.13;97233.63;5013377;28;20037;-84
2022/07/24 08:00:29;;;;;;;15.00;7.95;;;;;;;39.87;27.42;97254.19;5028740;28;20082;-85
2022/07/24 08:02:55;;;;;;;17.50;8.50;;;;;;;40.24;27.16;97240.47;5032755;28;20566;-85
2022/07/24 08:05:20;;;;;;;16.90;8.07;;;;;;;41.38;25.59;97243.69;5033063;28;20037;-83
2022/07/24 08:07:46;;;;;;;16.60;8.30;;;;;;;40.26;26.50;97246.66;5033949;28;20029;-82
2022/07/24 08:10:14;;;;;;;16.55;8.40;;;;;;;39.95;27.81;97254.41;5013558;28;20033;-85
2022/07/24 08:12:48;;;;;;;16.45;8.20;;;;;;;38.81;29.04;97255.34;5013705;28;20056;-82
2022/07/24 08:15:13;;;;;;;23.75;8.98;;;;;;;39.02;30.09;97265.38;5033528;28;20060;-85
2022/07/24 08:17:39;;;;;;;20.40;8.88;;;;;;;39.78;28.04;97261.53;5032530;28;20060;-83
2022/07/24 08:20:05;;;;;;;19.70;9.13;;;;;;;40.43;27.88;97271.47;5033404;28;20136;-84
2022/07/24 08:22:31;;;;;;;19.15;8.52;;;;;;;40.63;27.42;97260.13;5032293;28;20437;-84
2022/07/24 08:24:56;;;;;;;19.67;9.68;;;;;;;41.54;26.74;97265.66;5032528;28;20049;-84
2022/07/24 08:27:22;;;;;;;12.10;7.95;;;;;;;40.81;26.47;97259.38;5031999;28;20115;-84
2022/07/24 08:29:48;;;;;;;24.40;7.70;;;;;;;40.63;26.42;97271.34;5032731;28;20033;-84
2022/07/24 08:32:13;;;;;;;15.48;8.63;;;;;;;39.23;28.08;97254.16;5047346;28;20029;-84
2022/07/24 08:34:39;;;;;;;23.73;8.43;;;;;;;39.87;27.15;97263.41;5049683;28;20017;-85
2022/07/24 08:37:04;;;;;;;18.23;10.32;;;;;;;40.69;26.23;97246.88;5036034;28;20033;-85
2022/07/24 08:39:30;;;;;;;18.27;8.60;;;;;;;42.46;24.56;97249.16;5061305;28;20031;-84
2022/07/24 08:41:56;;;;;;;18.42;8.65;;;;;;;41.72;25.27;97255.56;5052984;28;20452;-84
2022/07/24 08:44:21;;;;;;;13.52;8.05;;;;;;;42.85;24.34;97246.00;5052817;28;20028;-84
2022/07/24 08:46:48;;;;;;;16.98;8.45;;;;;;;43.46;23.89;97253.31;5052822;28;20404;-85
2022/07/24 08:49:15;;;;;;;18.70;8.52;;;;;;;44.74;21.72;97242.47;5052747;28;20412;-84
2022/07/24 08:51:42;;;;;;;16.33;7.43;;;;;;;46.30;20.86;97246.47;5066577;28;20031;-85
2022/07/24 08:54:09;;;;;;;15.82;7.32;;;;;;;46.47;20.33;97242.00;5053765;28;20480;-85
2022/07/24 08:56:38;;;;;;;13.35;7.40;;;;;;;45.30;20.66;97232.53;5055013;28;20024;-86
2022/07/24 08:59:04;;;;;;;12.65;7.93;;;;;;;46.02;20.11;97244.25;5056794;28;20032;-85
2022/07/24 09:01:30;;;;;;;14.63;6.97;;;;;;;46.50;19.73;97227.16;5056209;28;20127;-84
2022/07/24 09:03:55;;;;;;;17.50;7.45;;;;;;;45.86;20.56;97238.25;5073634;28;20032;-85
2022/07/24 09:06:21;;;;;;;13.98;6.97;;;;;;;45.18;20.56;97230.31;5056496;28;20092;-85
2022/07/24 09:09:03;;;;;;;24.48;8.02;;;;;;;46.02;19.79;97230.94;5056908;28;20032;-83
2022/07/24 09:11:29;;;;;;;17.45;7.38;;;;;;;47.50;17.70;97227.63;5056652;28;20152;-84
2022/07/24 09:17:05;;;;;;;21.42;8.02;;;;;;;49.55;16.77;97222.19;5069773;28;20035;-85
2022/07/24 09:19:31;;;;;;;20.63;9.70;;;;;;;50.23;16.44;97222.38;5056651;28;20035;-85
2022/07/24 09:21:57;;;;;;;9.75;7.25;;;;;;;49.85;16.30;97217.94;5053463;28;20408;-85
2022/07/24 09:24:23;;;;;;;9.40;6.80;;;;;;;49.88;16.13;97199.28;5067710;28;20028;-84
2022/07/24 09:26:56;;;;;;;17.50;7.97;;;;;;;49.39;16.38;97213.53;5073216;28;20545;-85
2022/07/24 09:29:24;;;;;;;19.92;6.72;;;;;;;49.63;15.81;97211.88;5056002;28;20048;-84
2022/07/24 09:32:03;;;;;;;16.05;6.28;;;;;;;50.89;15.17;97208.50;5056445;28;20138;-84
2022/07/24 09:34:38;;;;;;;13.43;6.28;;;;;;;50.93;15.26;97212.28;5055879;28;20040;-84
2022/07/24 09:37:08;;;;;;;12.27;6.38;;;;;;;51.51;14.50;97198.38;5054711;28;20028;-85
2022/07/24 09:39:35;;;;;;;16.23;6.78;;;;;;;51.70;14.81;97199.31;5048949;28;20036;-84
2022/07/24 09:42:03;;;;;;;12.90;6.40;;;;;;;49.09;15.65;97189.28;5041506;28;20036;-84
2022/07/24 09:44:30;;;;;;;8.90;5.93;;;;;;;49.37;15.78;97190.31;5063920;28;20044;-84
2022/07/24 09:47:02;;;;;;;14.20;6.97;;;;;;;49.89;15.60;97195.28;5061762;28;20051;-84
2022/07/24 09:49:29;;;;;;;10.73;6.38;;;;;;;50.74;15.05;97195.88;5053993;28;20141;-84
2022/07/24 09:52:15;;;;;;;9.95;5.85;;;;;;;49.59;15.54;97188.16;5055546;28;20037;-84
2022/07/24 09:54:48;;;;;;;11.00;6.45;;;;;;;50.80;14.80;97193.59;5072649;28;20020;-85
2022/07/24 09:57:15;;;;;;;8.02;5.82;;;;;;;49.54;15.44;97183.53;5054425;28;20036;-84
2022/07/24 09:59:40;;;;;;;16.10;5.82;;;;;;;49.37;16.03;97195.16;5066946;28;20170;-85
2022/07/24 10:02:08;;;;;;;8.30;6.20;;;;;;;49.97;15.40;97188.63;5055441;28;20033;-86
2022/07/24 10:04:34;;;;;;;12.85;5.80;;;;;;;50.40;15.10;97183.06;5046949;28;20035;-85
2022/07/24 10:07:02;;;;;;;11.32;5.95;;;;;;;50.14;15.38;97182.66;5055293;28;20412;-86
2022/07/24 10:09:29;;;;;;;9.60;5.88;;;;;;;50.12;15.77;97190.72;5043888;28;20027;-84
2022/07/24 10:11:57;;;;;;;10.18;5.45;;;;;;;49.84;15.47;97165.00;5072551;28;20404;-86
2022/07/24 10:14:24;;;;;;;11.07;6.45;;;;;;;49.51;15.18;97174.88;5042856;28;20097;-84
2022/07/24 10:17:05;;;;;;;13.50;8.30;;;;;;;49.94;15.33;97175.91;5054189;28;20029;-84
2022/07/24 10:19:39;;;;;;;8.57;6.47;;;;;;;50.50;14.95;97170.31;5055703;28;20400;-84
2022/07/24 10:22:09;;;;;;;14.43;5.47;;;;;;;50.36;14.51;97170.72;5043098;28;20112;-85
2022/07/24 10:24:57;;;;;;;10.80;5.90;;;;;;;47.41;15.90;97153.91;5052263;28;20028;-85
2022/07/24 10:27:28;;;;;;;9.23;5.57;;;;;;;49.47;15.36;97146.34;5073203;28;20035;-85
2022/07/24 10:29:55;;;;;;;9.68;5.97;;;;;;;50.11;15.15;97154.09;5054881;28;20028;-84
2022/07/24 10:32:22;;;;;;;10.38;5.75;;;;;;;50.01;14.93;97158.25;5049976;28;20111;-86
2022/07/24 10:34:53;;;;;;;15.13;5.53;;;;;;;50.85;14.25;97151.41;5079480;28;20028;-87
2022/07/24 10:37:26;;;;;;;10.20;5.05;;;;;;;51.00;13.52;97138.38;5072964;28;20024;-84
2022/07/24 10:39:55;;;;;;;11.65;5.43;;;;;;;49.85;15.31;97152.44;5080115;28;20033;-79
2022/07/24 10:42:20;;;;;;;14.52;5.13;;;;;;;49.78;14.54;97140.03;5073258;28;20088;-84
2022/07/24 10:45:17;;;;;;;6.63;5.20;;;;;;;51.20;13.95;97142.97;5057350;28;20407;-86
2022/07/24 10:47:42;;;;;;;10.27;5.20;;;;;;;50.89;13.69;97145.78;5055484;28;20090;-88
2022/07/24 10:50:08;;;;;;;9.07;5.18;;;;;;;51.05;14.21;97140.94;5056611;28;20466;-88
2022/07/24 10:52:34;;;;;;;23.85;6.57;;;;;;;51.11;13.56;97127.22;5072586;28;20024;-87
2022/07/24 10:55:33;;;;;;;12.32;5.68;;;;;;;51.39;13.29;97140.22;5072520;28;20105;-86
2022/07/24 10:58:17;;;;;;;10.90;6.30;;;;;;;52.12;13.54;97144.44;5056590;28;20035;-87
2022/07/24 11:00:46;;;;;;;10.40;6.63;;;;;;;52.07;13.43;97151.25;5056441;28;20052;-87
2022/07/24 11:03:21;;;;;;;11.48;6.93;;;;;;;52.01;13.29;97141.34;5057640;28;20032;-88
2022/07/24 11:06:06;;;;;;;8.85;6.75;;;;;;;53.13;12.76;97135.47;5055869;28;20035;-87
2022/07/24 11:08:44;;;;;;;8.80;5.72;;;;;;;51.23;13.70;97122.25;5064134;28;20476;-88
2022/07/24 11:14:37;;;;;;;6.78;5.60;;;;;;;49.07;14.86;97123.41;5074284;28;20043;-86
2022/07/24 11:17:41;;;;;;;7.43;5.82;;;;;;;48.74;15.07;97119.78;5061054;28;20088;-86
2022/07/24 11:20:20;;;;;;;12.20;5.90;;;;;;;48.24;15.31;97106.59;5065747;28;20036;-90
2022/07/24 11:22:52;;;;;;;29.77;6.57;;;;;;;49.27;14.77;97105.41;5055260;28;20040;-86
2022/07/24 11:25:22;;;;;;;9.32;5.47;;;;;;;49.16;15.24;97109.94;5071350;28;20033;-91
2022/07/24 11:27:58;;;;;;;12.00;5.95;;;;;;;49.62;14.61;97104.94;5052123;28;20029;-89
2022/07/24 11:30:29;;;;;;;7.97;6.38;;;;;;;48.33;15.03;97098.00;5055825;28;20028;-88
2022/07/24 11:32:55;;;;;;;17.50;6.10;;;;;;;47.59;16.04;97092.28;5041451;28;20511;-90